createdAt,value
2018-04-15T00:02:06.090Z,11.50
2018-04-15T00:04:34.199Z,11.50
2018-04-15T00:07:02.434Z,11.40
2018-04-15T00:09:30.552Z,11.40
2018-04-15T00:11:58.678Z,11.40
2018-04-15T00:14:26.807Z,11.40
2018-04-15T00:16:54.976Z,11.30
2018-04-15T00:19:23.195Z,11.30
2018-04-15T00:21:51.338Z,11.20
2018-04-15T00:24:20.336Z,11.00
2018-04-15T00:26:49.209Z,11.00
2018-04-15T00:29:18.237Z,10.90
2018-04-15T00:31:47.230Z,10.90
2018-04-15T00:34:15.338Z,10.90
2018-04-15T00:36:43.456Z,10.80
2018-04-15T00:39:11.748Z,10.80
2018-04-15T00:41:39.919Z,10.70
2018-04-15T00:44:08.103Z,10.70
2018-04-15T00:46:36.308Z,10.70
2018-04-15T00:49:04.435Z,10.70
2018-04-15T00:51:32.607Z,10.70
2018-04-15T00:54:13.315Z,10.50
2018-04-15T00:56:41.511Z,10.50
2018-04-15T00:59:09.651Z,10.50
2018-04-15T01:01:37.856Z,10.40
2018-04-15T01:04:06.781Z,10.30
2018-04-15T01:06:35.643Z,10.30
2018-04-15T01:09:04.565Z,10.30
2018-04-15T01:11:32.732Z,10.20
2018-04-15T01:14:01.684Z,10.20
2018-04-15T01:16:30.714Z,10.20
2018-04-15T01:18:58.820Z,10.10
2018-04-15T01:21:26.942Z,10.20
2018-04-15T01:23:55.079Z,10.20
2018-04-15T01:26:23.301Z,10.20
2018-04-15T01:28:52.190Z,10.20
2018-04-15T01:31:20.281Z,10.10
2018-04-15T01:33:48.417Z,10.10
2018-04-15T01:36:16.610Z,10.00
2018-04-15T01:38:44.712Z,10.00
2018-04-15T01:41:12.950Z,10.00
2018-04-15T01:43:41.931Z,9.90
2018-04-15T01:46:10.113Z,9.80
2018-04-15T01:48:38.965Z,9.80
2018-04-15T01:51:07.889Z,9.80
2018-04-15T01:53:36.779Z,9.70
2018-04-15T01:56:05.772Z,9.70
2018-04-15T01:58:33.880Z,9.70
2018-04-15T02:01:02.036Z,9.70
2018-04-15T02:03:30.183Z,9.70
2018-04-15T02:05:59.043Z,9.80
2018-04-15T02:08:27.931Z,9.80
2018-04-15T02:10:56.911Z,9.80
2018-04-15T02:13:25.843Z,9.80
2018-04-15T02:15:54.732Z,9.70
2018-04-15T02:18:23.598Z,9.70
2018-04-15T02:20:52.475Z,9.70
2018-04-15T02:23:21.355Z,9.70
2018-04-15T02:25:49.530Z,9.60
2018-04-15T02:28:18.464Z,9.60
2018-04-15T02:30:47.322Z,9.50
2018-04-15T02:33:16.342Z,9.50
2018-04-15T02:35:44.825Z,9.50
2018-04-15T02:38:13.005Z,9.50
2018-04-15T02:40:41.112Z,9.40
2018-04-15T02:43:09.297Z,9.40
2018-04-15T02:45:37.514Z,9.30
2018-04-15T02:48:05.602Z,9.30
2018-04-15T02:50:33.753Z,9.30
2018-04-15T02:53:01.933Z,9.20
2018-04-15T02:55:30.056Z,9.20
2018-04-15T02:57:58.923Z,9.20
2018-04-15T03:00:27.127Z,9.20
2018-04-15T03:02:56.048Z,9.10
2018-04-15T03:05:24.926Z,9.20
2018-04-15T03:07:53.025Z,9.10
2018-04-15T03:10:21.138Z,9.10
2018-04-15T03:12:50.021Z,9.10
2018-04-15T03:15:19.020Z,9.10
2018-04-15T03:17:48.051Z,9.10
2018-04-15T03:20:16.941Z,9.10
2018-04-15T03:22:45.794Z,9.10
2018-04-15T03:25:14.675Z,9.00
2018-04-15T03:27:43.555Z,8.90
2018-04-15T03:30:11.780Z,8.90
2018-04-15T03:32:39.951Z,8.90
2018-04-15T03:35:08.820Z,8.80
2018-04-15T03:37:37.012Z,8.80
2018-04-15T03:40:05.900Z,8.80
2018-04-15T03:42:34.746Z,8.70
2018-04-15T03:45:03.645Z,8.60
2018-04-15T03:47:32.515Z,8.60
2018-04-15T03:50:00.626Z,8.60
2018-04-15T03:52:28.809Z,8.50
2018-04-15T03:54:57.656Z,8.40
2018-04-15T03:57:25.871Z,8.40
2018-04-15T03:59:54.762Z,8.60
2018-04-15T04:02:23.618Z,8.70
2018-04-15T04:04:52.538Z,8.70
2018-04-15T04:07:20.630Z,8.60
2018-04-15T04:09:48.884Z,8.70
2018-04-15T04:12:17.742Z,8.60
2018-04-15T04:14:46.765Z,8.70
2018-04-15T04:17:14.866Z,8.60
2018-04-15T04:19:54.883Z,8.60
2018-04-15T04:22:36.470Z,8.40
2018-04-15T04:25:17.053Z,8.30
2018-04-15T04:27:45.263Z,8.30
2018-04-15T04:30:14.144Z,8.00
2018-04-15T04:32:42.328Z,8.00
2018-04-15T04:35:10.548Z,8.00
2018-04-15T04:37:38.682Z,8.00
2018-04-15T04:40:07.567Z,8.00
2018-04-15T04:42:36.493Z,8.00
2018-04-15T04:45:05.451Z,8.00
2018-04-15T04:47:34.373Z,8.10
2018-04-15T04:50:03.211Z,8.20
2018-04-15T04:52:32.150Z,8.20
2018-04-15T04:55:00.999Z,8.10
2018-04-15T04:57:29.893Z,8.00
2018-04-15T04:59:58.786Z,7.90
2018-04-15T05:02:27.705Z,8.00
2018-04-15T05:04:56.595Z,8.10
2018-04-15T05:07:25.447Z,8.20
2018-04-15T05:09:54.475Z,8.30
2018-04-15T05:12:23.364Z,8.30
2018-04-15T05:14:52.214Z,8.30
2018-04-15T05:17:21.107Z,8.30
2018-04-15T05:19:49.987Z,8.40
2018-04-15T05:22:18.204Z,8.30
2018-04-15T05:24:47.061Z,8.50
2018-04-15T05:27:15.958Z,8.50
2018-04-15T05:29:44.870Z,8.50
2018-04-15T05:32:13.801Z,8.60
2018-04-15T05:34:41.906Z,8.60
2018-04-15T05:37:10.884Z,8.90
2018-04-15T05:39:39.769Z,9.00
2018-04-15T05:42:07.882Z,8.90
2018-04-15T05:44:36.053Z,9.10
2018-04-15T05:47:04.248Z,9.10
2018-04-15T05:49:32.364Z,9.20
2018-04-15T05:52:00.527Z,9.30
2018-04-15T05:54:28.644Z,9.50
2018-04-15T05:56:56.768Z,9.50
2018-04-15T05:59:25.748Z,9.70
2018-04-15T06:01:53.876Z,9.70
2018-04-15T06:04:22.821Z,9.60
2018-04-15T06:06:51.704Z,9.60
2018-04-15T06:09:19.927Z,9.60
2018-04-15T06:11:48.802Z,9.80
2018-04-15T06:14:17.705Z,10.00
2018-04-15T06:16:46.730Z,10.10
2018-04-15T06:19:14.847Z,10.10
2018-04-15T06:21:43.723Z,10.10
2018-04-15T06:24:12.623Z,10.10
2018-04-15T06:26:41.606Z,10.10
2018-04-15T06:29:10.651Z,10.10
2018-04-15T06:31:38.876Z,10.10
2018-04-15T06:34:07.792Z,10.40
2018-04-15T06:36:36.640Z,10.50
2018-04-15T06:39:05.590Z,10.70
2018-04-15T06:41:33.675Z,10.60
2018-04-15T06:44:01.825Z,10.70
2018-04-15T06:46:29.986Z,10.80
2018-04-15T06:48:58.160Z,10.80
2018-04-15T06:51:26.331Z,10.80
2018-04-15T06:53:54.467Z,10.90
2018-04-15T06:56:23.355Z,11.20
2018-04-15T06:58:52.286Z,11.30
2018-04-15T07:01:20.453Z,11.30
2018-04-15T07:03:48.567Z,11.50
2018-04-15T07:06:16.717Z,11.60
2018-04-15T07:08:44.828Z,11.70
2018-04-15T07:11:13.730Z,12.00
2018-04-15T07:13:42.652Z,12.10
2018-04-15T07:16:10.836Z,12.10
2018-04-15T07:18:39.003Z,12.20
2018-04-15T07:21:07.175Z,12.40
2018-04-15T07:23:35.306Z,12.50
2018-04-15T07:26:04.185Z,12.80
2018-04-15T07:28:33.113Z,13.00
2018-04-15T07:31:01.397Z,13.00
2018-04-15T07:33:29.519Z,13.30
2018-04-15T07:35:57.745Z,13.50
2018-04-15T07:38:25.854Z,13.70
2018-04-15T07:40:54.772Z,14.20
2018-04-15T07:43:22.912Z,14.10
2018-04-15T07:45:51.137Z,14.30
2018-04-15T07:48:19.248Z,14.30
2018-04-15T07:50:47.380Z,14.40
2018-04-15T07:53:15.556Z,14.50
2018-04-15T07:55:43.687Z,14.60
2018-04-15T07:58:11.896Z,14.70
2018-04-15T08:00:40.765Z,14.50
2018-04-15T08:03:08.932Z,14.50
2018-04-15T08:05:37.854Z,14.50
2018-04-15T08:08:06.020Z,14.60
2018-04-15T08:10:34.201Z,14.50
2018-04-15T08:13:02.312Z,14.70
2018-04-15T08:15:30.509Z,15.00
2018-04-15T08:17:59.409Z,15.20
2018-04-15T08:20:27.597Z,15.10
2018-04-15T08:22:55.769Z,15.20
2018-04-15T08:25:23.951Z,15.20
2018-04-15T08:27:52.058Z,15.40
2018-04-15T08:30:21.821Z,15.80
2018-04-15T08:32:50.715Z,15.90
2018-04-15T08:35:18.989Z,15.80
2018-04-15T08:37:47.231Z,16.00
2018-04-15T08:40:16.229Z,16.30
2018-04-15T08:42:44.391Z,16.20
2018-04-15T08:45:12.557Z,16.30
2018-04-15T08:47:42.201Z,15.90
2018-04-15T08:50:10.371Z,15.90
2018-04-15T08:52:38.533Z,15.90
2018-04-15T08:55:06.675Z,15.90
2018-04-15T08:57:35.571Z,15.70
2018-04-15T09:00:04.604Z,15.70
2018-04-15T09:02:32.709Z,15.70
2018-04-15T09:05:00.943Z,15.80
2018-04-15T09:07:29.842Z,15.80
2018-04-15T09:09:57.973Z,15.80
2018-04-15T09:12:26.178Z,15.90
2018-04-15T09:14:54.356Z,16.10
2018-04-15T09:17:22.654Z,16.20
2018-04-15T09:19:50.898Z,16.20
2018-04-15T09:22:19.785Z,16.30
2018-04-15T09:24:47.961Z,16.30
2018-04-15T09:27:16.070Z,16.50
2018-04-15T09:29:44.304Z,16.60
2018-04-15T09:32:13.231Z,16.90
2018-04-15T09:34:41.470Z,16.80
2018-04-15T09:37:09.639Z,17.10
2018-04-15T09:39:37.796Z,17.10
2018-04-15T09:42:06.810Z,17.20
2018-04-15T09:44:34.976Z,17.30
2018-04-15T09:47:03.152Z,17.40
2018-04-15T09:49:31.303Z,17.60
2018-04-15T09:51:59.453Z,17.70
2018-04-15T09:54:28.497Z,17.60
2018-04-15T09:56:56.654Z,17.60
2018-04-15T09:59:24.797Z,17.60
2018-04-15T10:01:53.820Z,17.50
2018-04-15T10:04:21.968Z,17.40
2018-04-15T10:06:50.169Z,17.50
2018-04-15T10:09:18.308Z,17.50
2018-04-15T10:11:47.433Z,17.60
2018-04-15T10:14:15.547Z,17.60
2018-04-15T10:16:43.775Z,17.70
2018-04-15T10:19:11.956Z,17.90
2018-04-15T10:21:40.096Z,18.20
2018-04-15T10:24:09.101Z,18.40
2018-04-15T10:26:37.157Z,18.30
2018-04-15T10:29:05.303Z,18.40
2018-04-15T10:31:33.538Z,18.40
2018-04-15T10:34:01.651Z,18.50
2018-04-15T10:36:29.805Z,18.50
2018-04-15T10:38:57.950Z,18.60
2018-04-15T10:41:26.113Z,18.60
2018-04-15T10:43:54.300Z,18.60
2018-04-15T10:46:22.475Z,18.60
2018-04-15T10:48:50.630Z,18.80
2018-04-15T10:51:18.810Z,19.20
2018-04-15T10:53:47.077Z,19.50
2018-04-15T10:56:16.048Z,19.80
2018-04-15T10:58:44.173Z,19.80
2018-04-15T11:01:12.304Z,20.00
2018-04-15T11:03:40.457Z,20.00
2018-04-15T11:06:08.667Z,20.10
2018-04-15T11:08:36.892Z,20.20
2018-04-15T11:11:05.124Z,20.40
2018-04-15T11:13:33.277Z,20.30
2018-04-15T11:16:02.266Z,19.90
2018-04-15T11:18:30.432Z,19.80
2018-04-15T11:20:58.620Z,19.70
2018-04-15T11:23:26.764Z,19.50
2018-04-15T11:25:55.781Z,19.70
2018-04-15T11:28:23.918Z,19.70
2018-04-15T11:30:52.848Z,19.40
2018-04-15T11:33:20.978Z,19.30
2018-04-15T11:35:49.882Z,19.10
2018-04-15T11:38:18.790Z,19.00
2018-04-15T11:40:46.959Z,19.00
2018-04-15T11:43:15.236Z,19.10
2018-04-15T11:45:43.330Z,19.30
2018-04-15T11:48:11.546Z,19.40
2018-04-15T11:50:40.433Z,19.50
2018-04-15T11:53:09.360Z,19.60
2018-04-15T11:55:37.493Z,19.60
2018-04-15T11:58:05.701Z,19.80
2018-04-15T12:00:34.610Z,20.20
2018-04-15T12:03:02.868Z,20.20
2018-04-15T12:05:31.865Z,20.70
2018-04-15T12:08:00.006Z,20.60
2018-04-15T12:10:28.201Z,20.90
2018-04-15T12:12:57.203Z,21.40
2018-04-15T12:15:25.315Z,21.30
2018-04-15T12:17:55.076Z,21.60
2018-04-15T12:20:23.247Z,21.60
2018-04-15T12:22:52.209Z,21.70
2018-04-15T12:25:21.129Z,21.90
2018-04-15T12:27:49.276Z,21.80
2018-04-15T12:30:18.195Z,22.00
2018-04-15T12:32:46.323Z,22.00
2018-04-15T12:35:14.543Z,22.00
2018-04-15T12:37:42.717Z,22.00
2018-04-15T12:40:10.879Z,21.80
2018-04-15T12:42:39.776Z,21.20
2018-04-15T12:45:07.954Z,21.20
2018-04-15T12:47:36.082Z,21.10
2018-04-15T12:50:05.002Z,21.30
2018-04-15T12:52:33.288Z,21.30
2018-04-15T12:55:01.452Z,21.50
2018-04-15T12:57:29.592Z,21.80
2018-04-15T12:59:59.505Z,22.40
2018-04-15T13:02:28.527Z,22.80
2018-04-15T13:04:56.656Z,22.80
2018-04-15T13:07:24.877Z,23.10
2018-04-15T13:09:53.015Z,23.20
2018-04-15T13:12:21.943Z,23.00
2018-04-15T13:14:50.080Z,23.00
2018-04-15T13:17:19.023Z,22.70
2018-04-15T13:19:47.170Z,22.60
2018-04-15T13:22:16.070Z,22.70
2018-04-15T13:24:44.168Z,22.70
2018-04-15T13:27:12.410Z,22.80
2018-04-15T13:29:40.574Z,22.80
2018-04-15T13:32:09.565Z,22.40
2018-04-15T13:34:38.456Z,22.00
2018-04-15T13:37:06.585Z,21.90
2018-04-15T13:39:34.800Z,21.70
2018-04-15T13:42:03.650Z,21.70
2018-04-15T13:44:32.581Z,21.80
2018-04-15T13:47:01.502Z,21.70
2018-04-15T13:49:29.595Z,21.70
2018-04-15T13:51:58.491Z,22.00
2018-04-15T13:54:27.477Z,22.20
2018-04-15T13:56:55.592Z,22.10
2018-04-15T13:59:23.764Z,22.00
2018-04-15T14:01:52.622Z,22.20
2018-04-15T14:04:21.655Z,22.10
2018-04-15T14:06:49.781Z,22.10
2018-04-15T14:09:18.910Z,21.80
2018-04-15T14:11:47.321Z,21.80
2018-04-15T14:14:15.463Z,21.50
2018-04-15T14:16:43.737Z,21.40
2018-04-15T14:19:12.646Z,21.10
2018-04-15T14:21:40.907Z,21.10
2018-04-15T14:24:09.053Z,21.20
2018-04-15T14:26:38.061Z,21.20
2018-04-15T14:29:07.060Z,21.00
2018-04-15T14:31:35.171Z,21.10
2018-04-15T14:34:03.406Z,20.90
2018-04-15T14:36:31.534Z,20.80
2018-04-15T14:38:59.672Z,20.80
2018-04-15T14:41:27.811Z,20.70
2018-04-15T14:43:56.907Z,20.70
2018-04-15T14:46:25.078Z,20.70
2018-04-15T14:48:53.972Z,20.80
2018-04-15T14:51:22.107Z,20.80
2018-04-15T14:53:51.133Z,20.90
2018-04-15T14:56:19.268Z,20.90
2018-04-15T14:58:47.581Z,21.00
2018-04-15T15:01:15.760Z,21.00
2018-04-15T15:03:43.912Z,21.00
2018-04-15T15:06:12.072Z,20.90
2018-04-15T15:08:40.275Z,20.70
2018-04-15T15:11:08.390Z,20.50
2018-04-15T15:13:36.616Z,20.30
2018-04-15T15:16:04.922Z,20.20
2018-04-15T15:18:33.150Z,20.10
2018-04-15T15:21:01.302Z,20.00
2018-04-15T15:23:29.507Z,19.80
2018-04-15T15:25:58.480Z,19.70
2018-04-15T15:28:26.608Z,19.70
2018-04-15T15:30:54.772Z,19.60
2018-04-15T15:33:22.915Z,19.50
2018-04-15T15:35:51.097Z,19.40
2018-04-15T15:38:19.222Z,19.30
2018-04-15T15:40:48.206Z,19.10
2018-04-15T15:43:17.141Z,19.00
2018-04-15T15:45:45.285Z,19.00
2018-04-15T15:48:14.205Z,18.80
2018-04-15T15:50:42.348Z,18.70
2018-04-15T15:53:11.233Z,18.60
2018-04-15T15:55:40.174Z,18.50
2018-04-15T15:58:08.311Z,18.50
2018-04-15T16:00:37.316Z,18.30
2018-04-15T16:03:05.453Z,18.30
2018-04-15T16:05:34.481Z,18.20
2018-04-15T16:08:02.658Z,18.20
2018-04-15T16:10:30.827Z,18.20
2018-04-15T16:12:58.996Z,18.10
2018-04-15T16:15:27.148Z,18.10
2018-04-15T16:17:56.163Z,18.00
2018-04-15T16:20:24.307Z,18.00
2018-04-15T16:22:53.192Z,17.90
2018-04-15T16:25:22.215Z,17.90
2018-04-15T16:27:50.489Z,17.80
2018-04-15T16:30:19.391Z,17.80
2018-04-15T16:32:47.553Z,17.80
2018-04-15T16:35:15.708Z,17.80
2018-04-15T16:37:43.868Z,17.80
2018-04-15T16:40:12.813Z,17.70
2018-04-15T16:42:40.956Z,17.70
2018-04-15T16:45:09.223Z,17.70
2018-04-15T16:47:37.348Z,17.70
2018-04-15T16:50:05.578Z,17.70
2018-04-15T16:52:33.719Z,17.60
2018-04-15T16:55:01.921Z,17.60
2018-04-15T16:57:30.061Z,17.50
2018-04-15T16:59:59.109Z,17.50
2018-04-15T17:02:27.263Z,17.50
2018-04-15T17:04:55.397Z,17.40
2018-04-15T17:07:24.295Z,17.40
2018-04-15T17:09:52.494Z,17.30
2018-04-15T17:12:20.665Z,17.40
2018-04-15T17:14:48.807Z,17.30
2018-04-15T17:17:16.943Z,17.30
2018-04-15T17:19:45.199Z,17.20
2018-04-15T17:22:13.434Z,17.20
2018-04-15T17:24:42.412Z,17.20
2018-04-15T17:27:10.617Z,17.20
2018-04-15T17:29:38.790Z,17.20
2018-04-15T17:32:06.993Z,17.10
2018-04-15T17:34:35.084Z,17.00
2018-04-15T17:37:03.307Z,17.00
2018-04-15T17:39:31.467Z,16.90
2018-04-15T17:41:59.613Z,16.90
2018-04-15T17:44:28.548Z,16.80
2018-04-15T17:46:56.695Z,16.80
2018-04-15T17:49:25.633Z,16.70
2018-04-15T17:51:53.766Z,16.70
2018-04-15T17:54:22.060Z,16.70
2018-04-15T17:56:50.197Z,16.70
2018-04-15T17:59:19.158Z,16.60
2018-04-15T18:01:47.395Z,16.50
2018-04-15T18:04:15.569Z,16.60
2018-04-15T18:06:43.738Z,16.50
2018-04-15T18:09:12.155Z,16.40
2018-04-15T18:11:40.295Z,16.40
2018-04-15T18:14:08.565Z,16.40
2018-04-15T18:16:36.832Z,16.30
2018-04-15T18:19:04.953Z,16.30
2018-04-15T18:21:33.121Z,16.20
2018-04-15T18:24:01.350Z,16.10
2018-04-15T18:26:29.521Z,16.10
2018-04-15T18:28:57.656Z,16.10
2018-04-15T18:31:26.685Z,16.00
2018-04-15T18:33:54.826Z,15.90
2018-04-15T18:36:22.963Z,15.90
2018-04-15T18:38:51.203Z,15.90
2018-04-15T18:41:19.389Z,15.90
2018-04-15T18:43:47.648Z,15.90
2018-04-15T18:46:15.812Z,15.90
2018-04-15T18:48:44.000Z,15.80
2018-04-15T18:51:12.175Z,15.80
2018-04-15T18:53:40.344Z,15.80
2018-04-15T18:56:08.486Z,15.80
2018-04-15T18:58:36.682Z,15.80
2018-04-15T19:01:04.859Z,15.70
2018-04-15T19:03:32.992Z,15.70
2018-04-15T19:06:02.027Z,15.60
2018-04-15T19:08:30.170Z,15.60
2018-04-15T19:10:59.191Z,15.60
2018-04-15T19:13:27.420Z,15.60
2018-04-15T19:15:57.107Z,15.60
2018-04-15T19:18:25.340Z,15.60
2018-04-15T19:20:53.622Z,15.50
2018-04-15T19:23:21.840Z,15.50
2018-04-15T19:25:50.024Z,15.50
2018-04-15T19:28:18.198Z,15.40
2018-04-15T19:30:46.406Z,15.40
2018-04-15T19:33:14.536Z,15.40
2018-04-15T19:35:43.465Z,15.30
2018-04-15T19:38:11.601Z,15.30
2018-04-15T19:40:40.632Z,15.30
2018-04-15T19:43:08.767Z,15.30
2018-04-15T19:45:37.010Z,15.30
2018-04-15T19:48:05.147Z,15.30
2018-04-15T19:50:33.433Z,15.30
2018-04-15T19:53:01.613Z,15.30
2018-04-15T19:55:29.873Z,15.30
2018-04-15T19:57:57.985Z,15.30
2018-04-15T20:00:26.179Z,15.30
2018-04-15T20:02:55.131Z,15.30
2018-04-15T20:05:23.380Z,15.20
2018-04-15T20:07:51.514Z,15.30
2018-04-15T20:10:19.757Z,15.20
2018-04-15T20:12:48.001Z,15.20
2018-04-15T20:15:16.119Z,15.20
2018-04-15T20:17:44.342Z,15.20
2018-04-15T20:20:12.519Z,15.20
2018-04-15T20:22:40.679Z,15.20
2018-04-15T20:25:08.841Z,15.20
2018-04-15T20:27:37.864Z,15.20
2018-04-15T20:30:06.033Z,15.10
2018-04-15T20:32:34.193Z,15.10
2018-04-15T20:35:02.360Z,15.20
2018-04-15T20:37:30.695Z,15.10
2018-04-15T20:39:58.930Z,15.10
2018-04-15T20:42:27.065Z,15.10
2018-04-15T20:44:56.079Z,15.10
2018-04-15T20:47:24.208Z,15.00
2018-04-15T20:49:52.423Z,15.00
2018-04-15T20:52:20.563Z,15.00
2018-04-15T20:54:48.696Z,14.90
2018-04-15T20:57:17.040Z,14.90
2018-04-15T20:59:45.152Z,14.80
2018-04-15T21:02:13.335Z,14.80
2018-04-15T21:04:41.478Z,14.80
2018-04-15T21:07:09.741Z,14.80
2018-04-15T21:09:37.872Z,14.70
2018-04-15T21:12:07.030Z,14.70
2018-04-15T21:14:35.178Z,14.70
2018-04-15T21:17:03.336Z,14.70
2018-04-15T21:19:31.478Z,14.70
2018-04-15T21:22:00.506Z,14.60
2018-04-15T21:24:28.616Z,14.60
2018-04-15T21:26:56.803Z,14.60
2018-04-15T21:29:25.027Z,14.60
2018-04-15T21:31:53.151Z,14.50
2018-04-15T21:34:22.088Z,14.50
2018-04-15T21:36:50.207Z,14.50
2018-04-15T21:39:18.332Z,14.50
2018-04-15T21:41:46.603Z,14.50
2018-04-15T21:44:14.716Z,14.40
2018-04-15T21:46:43.643Z,14.40
2018-04-15T21:49:11.808Z,14.40
2018-04-15T21:51:40.721Z,14.40
2018-04-15T21:54:08.857Z,14.30
2018-04-15T21:56:37.798Z,14.30
2018-04-15T21:59:05.960Z,14.30
2018-04-15T22:01:34.117Z,14.30
2018-04-15T22:04:02.273Z,14.30
2018-04-15T22:06:31.172Z,14.30
2018-04-15T22:09:00.157Z,14.30
2018-04-15T22:11:40.951Z,14.30
2018-04-15T22:14:09.135Z,14.20
2018-04-15T22:16:37.265Z,14.20
2018-04-15T22:19:06.200Z,14.20
2018-04-15T22:21:34.345Z,14.20
2018-04-15T22:24:03.221Z,14.10
2018-04-15T22:26:31.355Z,14.10
2018-04-15T22:28:59.507Z,14.10
2018-04-15T22:31:27.644Z,14.10
2018-04-15T22:33:55.859Z,14.10
2018-04-15T22:36:23.985Z,14.00
2018-04-15T22:38:52.192Z,14.00
2018-04-15T22:41:21.032Z,14.00
2018-04-15T22:43:49.956Z,14.00
2018-04-15T22:46:18.107Z,14.00
2018-04-15T22:48:46.304Z,14.10
2018-04-15T22:51:14.414Z,14.00
2018-04-15T22:53:42.572Z,14.00
2018-04-15T22:56:10.712Z,13.90
2018-04-15T22:58:44.465Z,13.90
2018-04-15T23:01:12.696Z,13.80
2018-04-15T23:03:40.864Z,13.70
2018-04-15T23:06:08.999Z,13.70
2018-04-15T23:08:37.924Z,13.70
2018-04-15T23:11:06.114Z,13.70
2018-04-15T23:13:34.259Z,13.70
2018-04-15T23:16:02.387Z,13.70
2018-04-15T23:18:30.525Z,13.60
2018-04-15T23:20:58.685Z,13.60
2018-04-15T23:23:26.824Z,13.50
2018-04-15T23:25:54.963Z,13.50
2018-04-15T23:28:24.756Z,13.40
2018-04-15T23:30:52.875Z,13.40
2018-04-15T23:33:21.903Z,13.40
2018-04-15T23:35:50.016Z,13.30
2018-04-15T23:38:18.255Z,13.40
2018-04-15T23:40:46.373Z,13.30
2018-04-15T23:43:14.693Z,13.40
2018-04-15T23:45:42.827Z,13.40
2018-04-15T23:48:11.857Z,13.40
2018-04-15T23:50:39.983Z,13.40
2018-04-15T23:53:08.115Z,13.40
2018-04-15T23:55:36.274Z,13.40
2018-04-15T23:58:04.402Z,13.30
